sensor_id;sensor_type;location;lat;lon;timestamp;P1;durP1;ratioP1;P2;durP2;ratioP2
30743;SDS011;17486;46.738;7.622;2023-06-22T00:01:02;11.73;;;5.53;;
30743;SDS011;17486;46.738;7.622;2023-06-22T00:03:27;10.93;;;5.30;;
30743;SDS011;17486;46.738;7.622;2023-06-22T00:05:52;11.70;;;5.80;;
30743;SDS011;17486;46.738;7.622;2023-06-22T00:08:18;13.27;;;5.88;;
30743;SDS011;17486;46.738;7.622;2023-06-22T00:10:45;9.77;;;5.63;;
30743;SDS011;17486;46.738;7.622;2023-06-22T00:13:11;16.77;;;5.75;;
30743;SDS011;17486;46.738;7.622;2023-06-22T00:15:37;12.95;;;6.40;;
30743;SDS011;17486;46.738;7.622;2023-06-22T00:18:05;16.67;;;6.50;;
30743;SDS011;17486;46.738;7.622;2023-06-22T00:20:31;13.73;;;6.25;;
30743;SDS011;17486;46.738;7.622;2023-06-22T00:22:57;12.00;;;5.82;;
30743;SDS011;17486;46.738;7.622;2023-06-22T00:25:24;15.48;;;6.57;;
30743;SDS011;17486;46.738;7.622;2023-06-22T00:27:50;12.07;;;6.32;;
30743;SDS011;17486;46.738;7.622;2023-06-22T00:30:15;9.95;;;6.03;;
30743;SDS011;17486;46.738;7.622;2023-06-22T00:32:42;12.45;;;6.30;;
30743;SDS011;17486;46.738;7.622;2023-06-22T00:35:08;11.50;;;5.65;;
30743;SDS011;17486;46.738;7.622;2023-06-22T00:37:35;14.55;;;6.53;;
30743;SDS011;17486;46.738;7.622;2023-06-22T00:40:01;13.02;;;6.30;;
30743;SDS011;17486;46.738;7.622;2023-06-22T00:42:27;13.23;;;6.22;;
30743;SDS011;17486;46.738;7.622;2023-06-22T00:44:53;15.48;;;6.40;;
30743;SDS011;17486;46.738;7.622;2023-06-22T00:47:18;10.88;;;5.72;;
30743;SDS011;17486;46.738;7.622;2023-06-22T00:49:44;14.38;;;5.50;;
30743;SDS011;17486;46.738;7.622;2023-06-22T00:52:10;10.85;;;5.45;;
30743;SDS011;17486;46.738;7.622;2023-06-22T00:54:42;14.05;;;6.13;;
30743;SDS011;17486;46.738;7.622;2023-06-22T00:57:11;12.00;;;5.45;;
30743;SDS011;17486;46.738;7.622;2023-06-22T00:59:40;11.20;;;5.40;;
30743;SDS011;17486;46.738;7.622;2023-06-22T01:02:07;10.52;;;5.78;;
30743;SDS011;17486;46.738;7.622;2023-06-22T01:04:37;10.48;;;5.75;;
30743;SDS011;17486;46.738;7.622;2023-06-22T01:07:10;12.02;;;6.10;;
30743;SDS011;17486;46.738;7.622;2023-06-22T01:09:49;13.45;;;6.50;;
30743;SDS011;17486;46.738;7.622;2023-06-22T01:12:22;9.57;;;6.05;;
30743;SDS011;17486;46.738;7.622;2023-06-22T01:14:51;14.90;;;6.00;;
30743;SDS011;17486;46.738;7.622;2023-06-22T01:17:23;11.23;;;5.50;;
30743;SDS011;17486;46.738;7.622;2023-06-22T01:19:51;11.18;;;5.72;;
30743;SDS011;17486;46.738;7.622;2023-06-22T01:22:23;13.23;;;5.97;;
30743;SDS011;17486;46.738;7.622;2023-06-22T01:25:00;9.82;;;6.18;;
30743;SDS011;17486;46.738;7.622;2023-06-22T01:30:20;17.52;;;6.90;;
30743;SDS011;17486;46.738;7.622;2023-06-22T01:32:49;11.38;;;6.22;;
30743;SDS011;17486;46.738;7.622;2023-06-22T01:35:17;10.70;;;5.68;;
30743;SDS011;17486;46.738;7.622;2023-06-22T01:37:44;15.68;;;6.68;;
30743;SDS011;17486;46.738;7.622;2023-06-22T01:40:10;13.80;;;6.10;;
30743;SDS011;17486;46.738;7.622;2023-06-22T01:42:36;12.80;;;5.70;;
30743;SDS011;17486;46.738;7.622;2023-06-22T01:45:03;16.30;;;6.55;;
30743;SDS011;17486;46.738;7.622;2023-06-22T01:47:29;13.23;;;5.60;;
30743;SDS011;17486;46.738;7.622;2023-06-22T01:49:55;11.23;;;5.70;;
30743;SDS011;17486;46.738;7.622;2023-06-22T01:52:21;10.55;;;5.53;;
30743;SDS011;17486;46.738;7.622;2023-06-22T01:54:47;16.13;;;6.75;;
30743;SDS011;17486;46.738;7.622;2023-06-22T01:57:13;10.23;;;5.78;;
30743;SDS011;17486;46.738;7.622;2023-06-22T02:02:14;13.35;;;6.05;;
30743;SDS011;17486;46.738;7.622;2023-06-22T02:04:44;12.73;;;5.88;;
30743;SDS011;17486;46.738;7.622;2023-06-22T02:07:17;12.68;;;5.95;;
30743;SDS011;17486;46.738;7.622;2023-06-22T02:09:46;11.85;;;6.13;;
30743;SDS011;17486;46.738;7.622;2023-06-22T02:12:14;11.20;;;6.07;;
30743;SDS011;17486;46.738;7.622;2023-06-22T02:14:43;14.98;;;6.38;;
30743;SDS011;17486;46.738;7.622;2023-06-22T02:17:11;11.00;;;6.57;;
30743;SDS011;17486;46.738;7.622;2023-06-22T02:19:38;12.07;;;5.75;;
30743;SDS011;17486;46.738;7.622;2023-06-22T02:22:05;12.75;;;5.82;;
30743;SDS011;17486;46.738;7.622;2023-06-22T02:24:31;11.80;;;5.97;;
30743;SDS011;17486;46.738;7.622;2023-06-22T02:26:58;14.25;;;6.10;;
30743;SDS011;17486;46.738;7.622;2023-06-22T02:29:24;11.88;;;5.65;;
30743;SDS011;17486;46.738;7.622;2023-06-22T02:31:50;9.07;;;5.75;;
30743;SDS011;17486;46.738;7.622;2023-06-22T02:34:15;15.50;;;6.63;;
30743;SDS011;17486;46.738;7.622;2023-06-22T02:36:44;14.18;;;5.72;;
30743;SDS011;17486;46.738;7.622;2023-06-22T02:39:16;14.48;;;6.35;;
30743;SDS011;17486;46.738;7.622;2023-06-22T02:41:47;17.35;;;6.65;;
30743;SDS011;17486;46.738;7.622;2023-06-22T02:44:12;13.82;;;6.50;;
30743;SDS011;17486;46.738;7.622;2023-06-22T02:46:37;13.13;;;6.20;;
30743;SDS011;17486;46.738;7.622;2023-06-22T02:49:03;11.55;;;6.25;;
30743;SDS011;17486;46.738;7.622;2023-06-22T02:51:30;17.17;;;6.15;;
30743;SDS011;17486;46.738;7.622;2023-06-22T02:53:59;10.05;;;5.45;;
30743;SDS011;17486;46.738;7.622;2023-06-22T02:56:24;14.55;;;6.45;;
30743;SDS011;17486;46.738;7.622;2023-06-22T02:58:49;17.40;;;6.30;;
30743;SDS011;17486;46.738;7.622;2023-06-22T03:01:15;16.90;;;6.65;;
30743;SDS011;17486;46.738;7.622;2023-06-22T03:03:40;15.07;;;6.82;;
30743;SDS011;17486;46.738;7.622;2023-06-22T03:06:06;13.05;;;6.50;;
30743;SDS011;17486;46.738;7.622;2023-06-22T03:08:31;16.35;;;6.00;;
30743;SDS011;17486;46.738;7.622;2023-06-22T03:10:57;11.65;;;6.43;;
30743;SDS011;17486;46.738;7.622;2023-06-22T03:13:22;15.00;;;6.60;;
30743;SDS011;17486;46.738;7.622;2023-06-22T03:15:48;19.95;;;6.75;;
30743;SDS011;17486;46.738;7.622;2023-06-22T03:18:13;15.65;;;6.78;;
30743;SDS011;17486;46.738;7.622;2023-06-22T03:20:40;13.77;;;6.88;;
30743;SDS011;17486;46.738;7.622;2023-06-22T03:23:06;13.75;;;6.63;;
30743;SDS011;17486;46.738;7.622;2023-06-22T03:25:31;14.18;;;6.68;;
30743;SDS011;17486;46.738;7.622;2023-06-22T03:27:58;16.45;;;6.78;;
30743;SDS011;17486;46.738;7.622;2023-06-22T03:30:24;14.63;;;6.93;;
30743;SDS011;17486;46.738;7.622;2023-06-22T03:32:49;11.77;;;6.72;;
30743;SDS011;17486;46.738;7.622;2023-06-22T03:35:14;17.33;;;6.57;;
30743;SDS011;17486;46.738;7.622;2023-06-22T03:37:40;14.70;;;6.18;;
30743;SDS011;17486;46.738;7.622;2023-06-22T03:40:05;11.57;;;6.00;;
30743;SDS011;17486;46.738;7.622;2023-06-22T03:42:33;14.50;;;6.22;;
30743;SDS011;17486;46.738;7.622;2023-06-22T03:45:00;11.77;;;6.00;;
30743;SDS011;17486;46.738;7.622;2023-06-22T03:47:26;15.93;;;6.75;;
30743;SDS011;17486;46.738;7.622;2023-06-22T03:49:51;14.40;;;6.72;;
30743;SDS011;17486;46.738;7.622;2023-06-22T03:52:20;15.80;;;6.68;;
30743;SDS011;17486;46.738;7.622;2023-06-22T03:54:46;14.45;;;6.57;;
30743;SDS011;17486;46.738;7.622;2023-06-22T03:57:11;16.38;;;7.20;;
30743;SDS011;17486;46.738;7.622;2023-06-22T03:59:36;12.27;;;6.55;;
30743;SDS011;17486;46.738;7.622;2023-06-22T04:02:02;13.40;;;7.88;;
30743;SDS011;17486;46.738;7.622;2023-06-22T04:04:27;15.77;;;7.07;;
30743;SDS011;17486;46.738;7.622;2023-06-22T04:06:53;13.52;;;7.22;;
30743;SDS011;17486;46.738;7.622;2023-06-22T04:09:18;15.40;;;6.40;;
30743;SDS011;17486;46.738;7.622;2023-06-22T04:11:44;13.85;;;6.18;;
30743;SDS011;17486;46.738;7.622;2023-06-22T04:14:09;9.63;;;6.47;;
30743;SDS011;17486;46.738;7.622;2023-06-22T04:16:34;11.38;;;6.68;;
30743;SDS011;17486;46.738;7.622;2023-06-22T04:19:00;12.32;;;6.50;;
30743;SDS011;17486;46.738;7.622;2023-06-22T04:21:25;12.25;;;6.47;;
30743;SDS011;17486;46.738;7.622;2023-06-22T04:23:50;12.55;;;6.22;;
30743;SDS011;17486;46.738;7.622;2023-06-22T04:26:16;16.23;;;7.07;;
30743;SDS011;17486;46.738;7.622;2023-06-22T04:28:41;14.32;;;6.60;;
30743;SDS011;17486;46.738;7.622;2023-06-22T04:31:06;13.13;;;7.30;;
30743;SDS011;17486;46.738;7.622;2023-06-22T04:33:32;15.38;;;7.40;;
30743;SDS011;17486;46.738;7.622;2023-06-22T04:35:58;14.52;;;7.20;;
30743;SDS011;17486;46.738;7.622;2023-06-22T04:38:26;17.13;;;7.65;;
30743;SDS011;17486;46.738;7.622;2023-06-22T04:40:52;14.13;;;6.18;;
30743;SDS011;17486;46.738;7.622;2023-06-22T04:43:18;13.77;;;6.68;;
30743;SDS011;17486;46.738;7.622;2023-06-22T04:45:44;13.35;;;7.20;;
30743;SDS011;17486;46.738;7.622;2023-06-22T04:48:09;13.45;;;6.95;;
30743;SDS011;17486;46.738;7.622;2023-06-22T04:50:35;13.10;;;6.28;;
30743;SDS011;17486;46.738;7.622;2023-06-22T04:53:03;14.75;;;6.82;;
30743;SDS011;17486;46.738;7.622;2023-06-22T04:55:30;14.30;;;6.97;;
30743;SDS011;17486;46.738;7.622;2023-06-22T04:57:56;12.63;;;6.85;;
30743;SDS011;17486;46.738;7.622;2023-06-22T05:00:29;14.95;;;6.57;;
30743;SDS011;17486;46.738;7.622;2023-06-22T05:02:55;17.45;;;6.57;;
30743;SDS011;17486;46.738;7.622;2023-06-22T05:05:22;16.50;;;7.57;;
30743;SDS011;17486;46.738;7.622;2023-06-22T05:07:49;14.27;;;7.72;;
30743;SDS011;17486;46.738;7.622;2023-06-22T05:10:18;13.85;;;7.38;;
30743;SDS011;17486;46.738;7.622;2023-06-22T05:12:43;11.98;;;6.28;;
30743;SDS011;17486;46.738;7.622;2023-06-22T05:15:09;14.10;;;7.30;;
30743;SDS011;17486;46.738;7.622;2023-06-22T05:17:35;15.32;;;7.78;;
30743;SDS011;17486;46.738;7.622;2023-06-22T05:20:01;15.85;;;7.28;;
30743;SDS011;17486;46.738;7.622;2023-06-22T05:22:27;11.65;;;7.25;;
30743;SDS011;17486;46.738;7.622;2023-06-22T05:24:53;16.45;;;7.15;;
30743;SDS011;17486;46.738;7.622;2023-06-22T05:27:18;13.27;;;7.35;;
30743;SDS011;17486;46.738;7.622;2023-06-22T05:29:44;15.55;;;6.85;;
30743;SDS011;17486;46.738;7.622;2023-06-22T05:32:09;13.85;;;7.78;;
30743;SDS011;17486;46.738;7.622;2023-06-22T05:34:35;12.48;;;6.53;;
30743;SDS011;17486;46.738;7.622;2023-06-22T05:37:00;13.02;;;7.28;;
30743;SDS011;17486;46.738;7.622;2023-06-22T05:39:25;12.45;;;7.05;;
30743;SDS011;17486;46.738;7.622;2023-06-22T05:41:51;17.65;;;7.53;;
30743;SDS011;17486;46.738;7.622;2023-06-22T05:44:16;10.55;;;6.75;;
30743;SDS011;17486;46.738;7.622;2023-06-22T05:46:42;11.98;;;6.97;;
30743;SDS011;17486;46.738;7.622;2023-06-22T05:49:13;15.00;;;7.25;;
30743;SDS011;17486;46.738;7.622;2023-06-22T05:51:39;14.70;;;7.30;;
30743;SDS011;17486;46.738;7.622;2023-06-22T05:54:05;12.80;;;7.18;;
30743;SDS011;17486;46.738;7.622;2023-06-22T05:56:30;14.93;;;6.75;;
30743;SDS011;17486;46.738;7.622;2023-06-22T05:58:56;17.75;;;6.78;;
30743;SDS011;17486;46.738;7.622;2023-06-22T06:01:22;14.00;;;6.97;;
30743;SDS011;17486;46.738;7.622;2023-06-22T06:03:47;13.63;;;7.22;;
30743;SDS011;17486;46.738;7.622;2023-06-22T06:06:15;11.55;;;6.80;;
30743;SDS011;17486;46.738;7.622;2023-06-22T06:08:41;13.75;;;7.43;;
30743;SDS011;17486;46.738;7.622;2023-06-22T06:11:06;15.32;;;7.22;;
30743;SDS011;17486;46.738;7.622;2023-06-22T06:13:32;13.45;;;6.45;;
30743;SDS011;17486;46.738;7.622;2023-06-22T06:15:57;17.77;;;7.30;;
30743;SDS011;17486;46.738;7.622;2023-06-22T06:18:24;12.88;;;7.65;;
30743;SDS011;17486;46.738;7.622;2023-06-22T06:20:50;14.48;;;7.60;;
30743;SDS011;17486;46.738;7.622;2023-06-22T06:23:15;13.38;;;6.68;;
30743;SDS011;17486;46.738;7.622;2023-06-22T06:25:40;14.10;;;7.30;;
30743;SDS011;17486;46.738;7.622;2023-06-22T06:28:06;11.52;;;7.38;;
30743;SDS011;17486;46.738;7.622;2023-06-22T06:30:31;18.17;;;7.30;;
30743;SDS011;17486;46.738;7.622;2023-06-22T06:32:57;16.17;;;7.93;;
30743;SDS011;17486;46.738;7.622;2023-06-22T06:35:23;16.25;;;7.60;;
30743;SDS011;17486;46.738;7.622;2023-06-22T06:37:49;15.50;;;7.03;;
30743;SDS011;17486;46.738;7.622;2023-06-22T06:40:15;16.23;;;7.47;;
30743;SDS011;17486;46.738;7.622;2023-06-22T06:42:43;14.82;;;8.07;;
30743;SDS011;17486;46.738;7.622;2023-06-22T06:45:11;21.02;;;8.57;;
30743;SDS011;17486;46.738;7.622;2023-06-22T06:47:38;14.80;;;7.40;;
30743;SDS011;17486;46.738;7.622;2023-06-22T06:50:04;16.45;;;7.72;;
30743;SDS011;17486;46.738;7.622;2023-06-22T06:52:30;15.90;;;6.95;;
30743;SDS011;17486;46.738;7.622;2023-06-22T06:54:56;16.48;;;6.78;;
30743;SDS011;17486;46.738;7.622;2023-06-22T06:57:21;16.08;;;7.47;;
30743;SDS011;17486;46.738;7.622;2023-06-22T06:59:47;12.38;;;7.57;;
30743;SDS011;17486;46.738;7.622;2023-06-22T07:02:14;12.65;;;6.53;;
30743;SDS011;17486;46.738;7.622;2023-06-22T07:04:40;12.88;;;6.65;;
30743;SDS011;17486;46.738;7.622;2023-06-22T07:07:06;17.77;;;7.25;;
30743;SDS011;17486;46.738;7.622;2023-06-22T07:09:31;17.23;;;6.78;;
30743;SDS011;17486;46.738;7.622;2023-06-22T07:11:57;11.38;;;6.88;;
30743;SDS011;17486;46.738;7.622;2023-06-22T07:14:22;16.13;;;6.97;;
30743;SDS011;17486;46.738;7.622;2023-06-22T07:16:47;18.23;;;6.85;;
30743;SDS011;17486;46.738;7.622;2023-06-22T07:19:13;15.23;;;7.15;;
30743;SDS011;17486;46.738;7.622;2023-06-22T07:21:38;14.20;;;7.00;;
30743;SDS011;17486;46.738;7.622;2023-06-22T07:24:04;12.88;;;6.45;;
30743;SDS011;17486;46.738;7.622;2023-06-22T07:26:31;12.95;;;6.55;;
30743;SDS011;17486;46.738;7.622;2023-06-22T07:28:56;12.65;;;6.28;;
30743;SDS011;17486;46.738;7.622;2023-06-22T07:31:23;12.98;;;7.40;;
30743;SDS011;17486;46.738;7.622;2023-06-22T07:33:49;19.60;;;7.97;;
30743;SDS011;17486;46.738;7.622;2023-06-22T07:36:16;14.48;;;7.07;;
30743;SDS011;17486;46.738;7.622;2023-06-22T07:38:42;14.77;;;7.30;;
30743;SDS011;17486;46.738;7.622;2023-06-22T07:41:07;15.73;;;7.40;;
30743;SDS011;17486;46.738;7.622;2023-06-22T07:43:33;14.85;;;6.70;;
30743;SDS011;17486;46.738;7.622;2023-06-22T07:45:59;16.65;;;7.63;;
30743;SDS011;17486;46.738;7.622;2023-06-22T07:48:25;16.77;;;7.47;;
30743;SDS011;17486;46.738;7.622;2023-06-22T07:50:50;15.43;;;6.47;;
30743;SDS011;17486;46.738;7.622;2023-06-22T07:53:17;12.07;;;6.60;;
30743;SDS011;17486;46.738;7.622;2023-06-22T07:55:43;14.70;;;7.90;;
30743;SDS011;17486;46.738;7.622;2023-06-22T07:58:08;13.38;;;7.40;;
30743;SDS011;17486;46.738;7.622;2023-06-22T08:00:33;14.45;;;7.25;;
30743;SDS011;17486;46.738;7.622;2023-06-22T08:02:59;14.98;;;7.22;;
30743;SDS011;17486;46.738;7.622;2023-06-22T08:05:24;15.48;;;7.60;;
30743;SDS011;17486;46.738;7.622;2023-06-22T08:07:50;13.55;;;6.28;;
30743;SDS011;17486;46.738;7.622;2023-06-22T08:10:16;16.23;;;6.22;;
30743;SDS011;17486;46.738;7.622;2023-06-22T08:12:41;17.48;;;7.65;;
30743;SDS011;17486;46.738;7.622;2023-06-22T08:15:07;14.10;;;6.88;;
30743;SDS011;17486;46.738;7.622;2023-06-22T08:17:34;17.67;;;7.20;;
30743;SDS011;17486;46.738;7.622;2023-06-22T08:20:01;11.57;;;6.63;;
30743;SDS011;17486;46.738;7.622;2023-06-22T08:22:27;16.95;;;6.85;;
30743;SDS011;17486;46.738;7.622;2023-06-22T08:24:53;16.63;;;7.10;;
30743;SDS011;17486;46.738;7.622;2023-06-22T08:27:18;20.58;;;8.02;;
30743;SDS011;17486;46.738;7.622;2023-06-22T08:29:46;12.95;;;6.35;;
30743;SDS011;17486;46.738;7.622;2023-06-22T08:32:12;13.02;;;7.18;;
30743;SDS011;17486;46.738;7.622;2023-06-22T08:34:37;13.15;;;7.32;;
30743;SDS011;17486;46.738;7.622;2023-06-22T08:37:07;13.75;;;6.85;;
30743;SDS011;17486;46.738;7.622;2023-06-22T08:39:34;11.45;;;6.80;;
30743;SDS011;17486;46.738;7.622;2023-06-22T08:41:59;20.00;;;8.02;;
30743;SDS011;17486;46.738;7.622;2023-06-22T08:44:25;15.70;;;7.20;;
30743;SDS011;17486;46.738;7.622;2023-06-22T08:46:50;10.68;;;6.70;;
30743;SDS011;17486;46.738;7.622;2023-06-22T08:49:15;13.98;;;6.47;;
30743;SDS011;17486;46.738;7.622;2023-06-22T08:51:41;11.20;;;6.85;;
30743;SDS011;17486;46.738;7.622;2023-06-22T08:54:06;21.98;;;7.63;;
30743;SDS011;17486;46.738;7.622;2023-06-22T08:56:31;17.00;;;7.38;;
30743;SDS011;17486;46.738;7.622;2023-06-22T08:58:57;15.73;;;6.90;;
30743;SDS011;17486;46.738;7.622;2023-06-22T09:01:22;15.30;;;6.90;;
30743;SDS011;17486;46.738;7.622;2023-06-22T09:03:48;15.32;;;6.95;;
30743;SDS011;17486;46.738;7.622;2023-06-22T09:06:20;12.40;;;6.50;;
30743;SDS011;17486;46.738;7.622;2023-06-22T09:08:46;17.88;;;6.70;;
30743;SDS011;17486;46.738;7.622;2023-06-22T09:11:12;12.43;;;6.68;;
30743;SDS011;17486;46.738;7.622;2023-06-22T09:13:38;16.05;;;7.18;;
30743;SDS011;17486;46.738;7.622;2023-06-22T09:16:03;16.13;;;6.95;;
30743;SDS011;17486;46.738;7.622;2023-06-22T09:18:29;15.27;;;7.35;;
30743;SDS011;17486;46.738;7.622;2023-06-22T09:20:54;16.52;;;7.32;;
30743;SDS011;17486;46.738;7.622;2023-06-22T09:23:19;16.52;;;7.07;;
30743;SDS011;17486;46.738;7.622;2023-06-22T09:25:45;14.57;;;8.05;;
30743;SDS011;17486;46.738;7.622;2023-06-22T09:28:12;15.48;;;7.30;;
30743;SDS011;17486;46.738;7.622;2023-06-22T09:30:38;14.70;;;7.47;;
30743;SDS011;17486;46.738;7.622;2023-06-22T09:33:03;18.77;;;8.23;;
30743;SDS011;17486;46.738;7.622;2023-06-22T09:35:28;16.83;;;6.97;;
30743;SDS011;17486;46.738;7.622;2023-06-22T09:37:54;17.65;;;7.55;;
30743;SDS011;17486;46.738;7.622;2023-06-22T09:40:19;18.55;;;7.13;;
30743;SDS011;17486;46.738;7.622;2023-06-22T09:42:45;19.75;;;7.68;;
30743;SDS011;17486;46.738;7.622;2023-06-22T09:45:10;19.55;;;7.00;;
30743;SDS011;17486;46.738;7.622;2023-06-22T09:47:36;17.63;;;7.68;;
30743;SDS011;17486;46.738;7.622;2023-06-22T09:50:02;14.02;;;7.30;;
30743;SDS011;17486;46.738;7.622;2023-06-22T09:52:27;17.90;;;6.93;;
30743;SDS011;17486;46.738;7.622;2023-06-22T09:54:53;18.67;;;7.47;;
30743;SDS011;17486;46.738;7.622;2023-06-22T09:57:18;16.13;;;7.32;;
30743;SDS011;17486;46.738;7.622;2023-06-22T09:59:43;16.45;;;7.03;;
30743;SDS011;17486;46.738;7.622;2023-06-22T10:02:09;17.05;;;7.43;;
30743;SDS011;17486;46.738;7.622;2023-06-22T10:04:34;17.88;;;6.88;;
30743;SDS011;17486;46.738;7.622;2023-06-22T10:07:00;14.45;;;6.72;;
30743;SDS011;17486;46.738;7.622;2023-06-22T10:09:26;17.27;;;7.20;;
30743;SDS011;17486;46.738;7.622;2023-06-22T10:11:52;13.82;;;7.00;;
30743;SDS011;17486;46.738;7.622;2023-06-22T10:14:17;14.73;;;6.95;;
30743;SDS011;17486;46.738;7.622;2023-06-22T10:16:43;15.50;;;6.88;;
30743;SDS011;17486;46.738;7.622;2023-06-22T10:19:08;18.05;;;7.70;;
30743;SDS011;17486;46.738;7.622;2023-06-22T10:21:34;14.25;;;7.15;;
30743;SDS011;17486;46.738;7.622;2023-06-22T10:23:59;17.35;;;7.40;;
30743;SDS011;17486;46.738;7.622;2023-06-22T10:26:30;16.48;;;7.70;;
30743;SDS011;17486;46.738;7.622;2023-06-22T10:28:56;14.68;;;7.03;;
30743;SDS011;17486;46.738;7.622;2023-06-22T10:31:21;13.70;;;6.85;;
30743;SDS011;17486;46.738;7.622;2023-06-22T10:33:47;15.52;;;6.82;;
30743;SDS011;17486;46.738;7.622;2023-06-22T10:36:14;16.50;;;8.07;;
30743;SDS011;17486;46.738;7.622;2023-06-22T10:38:40;15.75;;;7.57;;
30743;SDS011;17486;46.738;7.622;2023-06-22T10:41:05;18.20;;;6.88;;
30743;SDS011;17486;46.738;7.622;2023-06-22T10:43:31;21.08;;;7.38;;
30743;SDS011;17486;46.738;7.622;2023-06-22T10:45:56;14.15;;;7.10;;
30743;SDS011;17486;46.738;7.622;2023-06-22T10:48:22;15.70;;;6.95;;
30743;SDS011;17486;46.738;7.622;2023-06-22T10:50:47;17.40;;;7.43;;
30743;SDS011;17486;46.738;7.622;2023-06-22T10:53:12;15.63;;;8.18;;
30743;SDS011;17486;46.738;7.622;2023-06-22T10:55:38;13.27;;;7.65;;
30743;SDS011;17486;46.738;7.622;2023-06-22T10:58:03;16.15;;;7.53;;
30743;SDS011;17486;46.738;7.622;2023-06-22T11:00:28;15.60;;;6.95;;
30743;SDS011;17486;46.738;7.622;2023-06-22T11:02:54;13.65;;;7.65;;
30743;SDS011;17486;46.738;7.622;2023-06-22T11:05:19;15.70;;;7.25;;
30743;SDS011;17486;46.738;7.622;2023-06-22T11:07:44;15.90;;;7.10;;
30743;SDS011;17486;46.738;7.622;2023-06-22T11:10:10;13.63;;;7.43;;
30743;SDS011;17486;46.738;7.622;2023-06-22T11:12:37;14.88;;;6.90;;
30743;SDS011;17486;46.738;7.622;2023-06-22T11:15:02;15.02;;;7.03;;
30743;SDS011;17486;46.738;7.622;2023-06-22T11:17:28;20.38;;;8.68;;
30743;SDS011;17486;46.738;7.622;2023-06-22T11:19:53;17.92;;;8.52;;
30743;SDS011;17486;46.738;7.622;2023-06-22T11:22:19;15.43;;;7.50;;
30743;SDS011;17486;46.738;7.622;2023-06-22T11:24:44;13.32;;;7.32;;
30743;SDS011;17486;46.738;7.622;2023-06-22T11:27:09;17.25;;;7.70;;
30743;SDS011;17486;46.738;7.622;2023-06-22T11:29:35;13.30;;;7.13;;
30743;SDS011;17486;46.738;7.622;2023-06-22T11:32:01;16.25;;;7.78;;
30743;SDS011;17486;46.738;7.622;2023-06-22T11:34:26;15.73;;;7.30;;
30743;SDS011;17486;46.738;7.622;2023-06-22T11:36:53;14.32;;;7.38;;
30743;SDS011;17486;46.738;7.622;2023-06-22T11:39:18;14.80;;;7.63;;
30743;SDS011;17486;46.738;7.622;2023-06-22T11:41:43;18.33;;;8.00;;
30743;SDS011;17486;46.738;7.622;2023-06-22T11:44:09;16.27;;;7.97;;
30743;SDS011;17486;46.738;7.622;2023-06-22T11:46:34;15.38;;;8.73;;
30743;SDS011;17486;46.738;7.622;2023-06-22T11:49:00;16.02;;;8.05;;
30743;SDS011;17486;46.738;7.622;2023-06-22T11:51:25;20.10;;;8.73;;
30743;SDS011;17486;46.738;7.622;2023-06-22T11:53:51;18.05;;;8.52;;
30743;SDS011;17486;46.738;7.622;2023-06-22T11:56:16;19.85;;;9.05;;
30743;SDS011;17486;46.738;7.622;2023-06-22T11:58:41;16.90;;;8.32;;
30743;SDS011;17486;46.738;7.622;2023-06-22T12:01:07;15.90;;;8.52;;
30743;SDS011;17486;46.738;7.622;2023-06-22T12:03:32;20.10;;;9.30;;
30743;SDS011;17486;46.738;7.622;2023-06-22T12:05:58;16.52;;;8.52;;
30743;SDS011;17486;46.738;7.622;2023-06-22T12:08:24;15.10;;;8.00;;
30743;SDS011;17486;46.738;7.622;2023-06-22T12:10:50;15.30;;;7.55;;
30743;SDS011;17486;46.738;7.622;2023-06-22T12:13:15;14.63;;;7.25;;
30743;SDS011;17486;46.738;7.622;2023-06-22T12:15:41;16.48;;;7.43;;
30743;SDS011;17486;46.738;7.622;2023-06-22T12:18:06;13.27;;;7.18;;
30743;SDS011;17486;46.738;7.622;2023-06-22T12:20:32;17.67;;;7.40;;
30743;SDS011;17486;46.738;7.622;2023-06-22T12:22:57;15.07;;;7.70;;
30743;SDS011;17486;46.738;7.622;2023-06-22T12:25:23;12.88;;;7.10;;
30743;SDS011;17486;46.738;7.622;2023-06-22T12:27:49;11.80;;;6.93;;
30743;SDS011;17486;46.738;7.622;2023-06-22T12:30:15;12.25;;;6.97;;
30743;SDS011;17486;46.738;7.622;2023-06-22T12:32:41;12.75;;;7.13;;
30743;SDS011;17486;46.738;7.622;2023-06-22T12:35:06;10.68;;;6.60;;
30743;SDS011;17486;46.738;7.622;2023-06-22T12:37:36;15.38;;;6.90;;
30743;SDS011;17486;46.738;7.622;2023-06-22T12:40:02;18.42;;;7.25;;
30743;SDS011;17486;46.738;7.622;2023-06-22T12:42:29;16.20;;;7.50;;
30743;SDS011;17486;46.738;7.622;2023-06-22T12:44:54;14.48;;;7.32;;
30743;SDS011;17486;46.738;7.622;2023-06-22T12:47:19;13.23;;;6.63;;
30743;SDS011;17486;46.738;7.622;2023-06-22T12:49:45;14.10;;;7.00;;
30743;SDS011;17486;46.738;7.622;2023-06-22T12:52:10;15.77;;;7.47;;
30743;SDS011;17486;46.738;7.622;2023-06-22T12:54:38;14.23;;;7.53;;
30743;SDS011;17486;46.738;7.622;2023-06-22T12:57:04;13.27;;;7.20;;
30743;SDS011;17486;46.738;7.622;2023-06-22T12:59:30;14.80;;;7.68;;
30743;SDS011;17486;46.738;7.622;2023-06-22T13:01:55;14.35;;;6.60;;
30743;SDS011;17486;46.738;7.622;2023-06-22T13:04:20;16.40;;;6.85;;
30743;SDS011;17486;46.738;7.622;2023-06-22T13:06:46;13.98;;;5.93;;
30743;SDS011;17486;46.738;7.622;2023-06-22T13:09:13;12.15;;;5.93;;
30743;SDS011;17486;46.738;7.622;2023-06-22T13:11:39;14.25;;;5.47;;
30743;SDS011;17486;46.738;7.622;2023-06-22T13:14:04;13.32;;;6.03;;
30743;SDS011;17486;46.738;7.622;2023-06-22T13:16:29;12.43;;;5.75;;
30743;SDS011;17486;46.738;7.622;2023-06-22T13:18:55;14.93;;;5.30;;
30743;SDS011;17486;46.738;7.622;2023-06-22T13:21:20;10.75;;;5.55;;
30743;SDS011;17486;46.738;7.622;2023-06-22T13:23:45;11.82;;;4.97;;
30743;SDS011;17486;46.738;7.622;2023-06-22T13:26:11;14.30;;;5.00;;
30743;SDS011;17486;46.738;7.622;2023-06-22T13:28:36;12.70;;;4.90;;
30743;SDS011;17486;46.738;7.622;2023-06-22T13:31:01;12.65;;;4.95;;
30743;SDS011;17486;46.738;7.622;2023-06-22T13:33:27;9.40;;;5.13;;
30743;SDS011;17486;46.738;7.622;2023-06-22T13:35:52;13.50;;;5.60;;
30743;SDS011;17486;46.738;7.622;2023-06-22T13:38:17;10.20;;;4.70;;
30743;SDS011;17486;46.738;7.622;2023-06-22T13:40:43;12.32;;;4.68;;
30743;SDS011;17486;46.738;7.622;2023-06-22T13:43:09;9.60;;;4.82;;
30743;SDS011;17486;46.738;7.622;2023-06-22T13:45:34;13.65;;;4.53;;
30743;SDS011;17486;46.738;7.622;2023-06-22T13:48:00;9.25;;;4.53;;
30743;SDS011;17486;46.738;7.622;2023-06-22T13:50:25;11.07;;;4.45;;
30743;SDS011;17486;46.738;7.622;2023-06-22T13:52:50;12.00;;;4.15;;
30743;SDS011;17486;46.738;7.622;2023-06-22T13:55:16;13.40;;;4.35;;
30743;SDS011;17486;46.738;7.622;2023-06-22T13:57:42;10.60;;;4.63;;
30743;SDS011;17486;46.738;7.622;2023-06-22T14:00:08;16.40;;;5.55;;
30743;SDS011;17486;46.738;7.622;2023-06-22T14:02:33;12.60;;;5.70;;
30743;SDS011;17486;46.738;7.622;2023-06-22T14:04:59;11.85;;;5.80;;
30743;SDS011;17486;46.738;7.622;2023-06-22T14:07:25;12.00;;;5.88;;
30743;SDS011;17486;46.738;7.622;2023-06-22T14:09:50;12.82;;;5.70;;
30743;SDS011;17486;46.738;7.622;2023-06-22T14:12:16;11.43;;;5.55;;
30743;SDS011;17486;46.738;7.622;2023-06-22T14:14:42;12.45;;;5.47;;
30743;SDS011;17486;46.738;7.622;2023-06-22T14:17:08;10.15;;;5.50;;
30743;SDS011;17486;46.738;7.622;2023-06-22T14:19:33;13.52;;;6.15;;
30743;SDS011;17486;46.738;7.622;2023-06-22T14:21:59;13.10;;;6.05;;
30743;SDS011;17486;46.738;7.622;2023-06-22T14:24:24;7.28;;;4.72;;
30743;SDS011;17486;46.738;7.622;2023-06-22T14:26:50;10.57;;;5.15;;
30743;SDS011;17486;46.738;7.622;2023-06-22T14:29:15;12.20;;;5.63;;
30743;SDS011;17486;46.738;7.622;2023-06-22T14:31:40;10.50;;;5.03;;
30743;SDS011;17486;46.738;7.622;2023-06-22T14:34:09;11.65;;;3.90;;